Time;durP1;ratioP1;P1;durP2;ratioP2;P2;SDS_P1;SDS_P2;PMS_P1;PMS_P2;Temp;Humidity;BMP_temperature;BMP_pressure;BME280_temperature;BME280_humidity;BME280_pressure;Samples;Min_cycle;Max_cycle;Signal;HPM_P1;HPM_P2
2021/12/15 00:01:59;;;;;;;17.25;10.15;;;12.00;68.10;;;10.48;69.51;102402.75;8456578;28;20110;-82
2021/12/15 00:06:22;;;;;;;20.00;11.98;;;12.00;68.10;;;10.49;69.49;102404.44;8461174;28;20045;-81
2021/12/15 00:10:46;;;;;;;19.88;10.85;;;12.00;68.10;;;10.44;70.25;102390.66;8461917;28;20113;-82
2021/12/15 00:15:09;;;;;;;18.65;11.70;;;12.00;68.10;;;10.47;69.97;102395.78;8451098;28;20122;-81
2021/12/15 00:19:31;;;;;;;16.02;9.57;;;12.00;68.10;;;10.44;69.58;102398.50;8452688;28;20121;-81
2021/12/15 00:23:53;;;;;;;20.15;12.35;;;12.00;68.10;;;10.45;70.35;102395.00;8450914;28;20061;-81
2021/12/15 00:28:15;;;;;;;20.80;12.00;;;11.90;68.00;;;10.47;70.05;102406.25;8455381;28;20119;-81
2021/12/15 00:32:38;;;;;;;18.13;11.85;;;11.90;68.00;;;10.42;70.23;102387.22;8468008;27;20110;-81
2021/12/15 00:37:00;;;;;;;17.45;10.82;;;11.90;68.00;;;10.47;69.61;102393.19;8456336;28;20514;-81
2021/12/15 00:41:23;;;;;;;18.08;11.20;;;12.00;68.10;;;10.45;69.34;102395.00;8452093;28;20472;-81
2021/12/15 00:45:46;;;;;;;16.23;10.80;;;11.90;68.00;;;10.46;69.61;102399.31;8453621;28;20130;-81
2021/12/15 00:50:11;;;;;;;17.15;11.02;;;11.90;68.10;;;10.48;69.70;102402.75;8442279;28;20120;-81
2021/12/15 00:54:34;;;;;;;17.92;11.52;;;12.00;68.10;;;10.49;69.54;102400.97;8462207;28;20119;-81
2021/12/15 00:58:56;;;;;;;18.52;11.32;;;12.00;68.10;;;10.44;69.59;102398.50;8449640;28;20483;-81
2021/12/15 01:03:18;;;;;;;17.27;11.07;;;11.90;68.00;;;10.43;70.05;102404.63;8451731;28;20123;-81
2021/12/15 01:07:42;;;;;;;17.67;11.25;;;12.00;68.10;;;10.49;69.54;102407.06;8423399;28;20392;-82
2021/12/15 01:12:17;;;;;;;15.98;10.55;;;12.00;68.00;;;10.48;70.10;102414.97;8460638;28;20125;-79
2021/12/15 01:21:32;;;;;;;15.75;10.25;;;11.90;67.90;;;10.30;69.70;102391.03;8451286;28;20130;-79
2021/12/15 01:26:00;;;;;;;16.35;10.57;;;11.90;67.80;;;10.47;69.54;102424.53;8454456;28;20039;-79
2021/12/15 01:30:31;;;;;;;15.77;11.15;;;12.00;67.90;;;10.46;69.93;102429.81;8442183;28;20148;-80
2021/12/15 01:34:53;;;;;;;17.48;10.25;;;11.90;67.80;;;10.41;70.04;102429.91;8434941;28;20114;-80
2021/12/15 01:39:15;;;;;;;16.35;10.32;;;11.90;67.70;;;10.44;70.29;102432.44;8449895;28;20130;-80
2021/12/15 01:48:21;;;;;;;15.57;10.70;;;11.90;67.80;;;10.38;69.69;102430.00;8456460;28;20165;-80
2021/12/15 01:52:43;;;;;;;16.77;11.07;;;11.90;67.80;;;10.38;69.80;102423.03;8449706;28;20134;-80
2021/12/15 01:57:08;;;;;;;15.82;10.10;;;11.90;67.80;;;10.35;69.78;102420.50;8447646;28;20122;-81
2021/12/15 02:01:31;;;;;;;17.55;11.07;;;11.90;67.90;;;10.37;69.60;102407.41;8443312;28;20122;-81
2021/12/15 02:05:54;;;;;;;14.80;10.10;;;11.90;67.90;;;10.40;69.97;102415.16;8468070;28;20039;-79
2021/12/15 02:10:19;;;;;;;15.63;10.50;;;11.90;67.90;;;10.39;69.60;102418.66;8437769;28;20027;-81
2021/12/15 02:14:41;;;;;;;15.93;10.07;;;11.90;67.90;;;10.35;69.44;102406.59;8460088;28;20034;-80
2021/12/15 02:19:04;;;;;;;14.88;9.57;;;11.90;67.90;;;10.37;69.94;102413.50;8437901;28;20142;-81
2021/12/15 02:23:38;;;;;;;17.35;10.38;;;11.90;67.90;;;10.33;70.28;102419.69;8457044;28;20126;-81
2021/12/15 02:28:02;;;;;;;15.40;10.60;;;11.90;68.00;;;10.38;69.28;102414.34;8441880;28;20563;-81
2021/12/15 02:32:42;;;;;;;15.05;10.18;;;11.90;68.10;;;10.37;69.47;102412.63;8470665;27;20119;-81
2021/12/15 02:37:19;;;;;;;15.50;9.65;;;11.90;68.00;;;10.34;69.88;102408.34;8467882;27;20118;-81
2021/12/15 02:41:43;;;;;;;16.17;9.57;;;11.80;67.90;;;10.35;69.50;102406.59;8455602;28;20118;-81
2021/12/15 02:46:06;;;;;;;14.50;10.13;;;11.80;67.90;;;10.31;69.80;102408.41;8448812;28;20567;-81
2021/12/15 02:50:31;;;;;;;15.55;10.05;;;11.80;68.00;;;10.36;69.77;102416.13;8453796;28;20120;-81
2021/12/15 02:54:53;;;;;;;14.15;9.75;;;11.80;68.00;;;10.33;70.17;102413.59;8449933;28;20134;-81
2021/12/15 02:59:19;;;;;;;15.60;10.02;;;11.80;68.00;;;10.32;69.65;102411.91;8452661;28;20446;-81
2021/12/15 03:08:47;;;;;;;15.02;9.65;;;11.80;68.00;;;10.33;69.35;102406.63;8460891;28;20126;-82
2021/12/15 03:18:00;;;;;;;15.27;9.93;;;11.90;68.00;;;10.30;69.73;102406.72;8457065;28;20133;-80
2021/12/15 03:22:23;;;;;;;16.35;9.77;;;11.80;68.00;;;10.24;69.59;102403.38;8463657;27;20111;-82
2021/12/15 03:26:59;;;;;;;16.85;10.13;;;11.80;68.00;;;10.23;70.40;102405.13;8465219;28;20043;-82
2021/12/15 03:36:12;;;;;;;13.45;9.45;;;11.80;67.90;;;10.34;69.70;102428.38;8457563;28;20126;-81
2021/12/15 03:40:42;;;;;;;15.27;10.05;;;11.80;68.00;;;10.18;69.48;102394.81;8459871;28;20432;-80
2021/12/15 03:45:17;;;;;;;11.55;7.75;;;11.80;67.90;;;10.25;69.69;102407.69;8465107;28;20130;-81
2021/12/15 03:49:39;;;;;;;15.17;9.13;;;11.80;67.90;;;10.31;70.32;102416.25;8457758;27;20561;-81
2021/12/15 03:54:02;;;;;;;14.50;9.45;;;11.80;67.90;;;10.22;69.61;102389.50;8449068;27;20115;-81
2021/12/15 03:58:25;;;;;;;14.25;8.93;;;11.80;68.00;;;10.29;69.83;102405.00;8463409;28;20118;-80
2021/12/15 04:02:49;;;;;;;12.68;8.68;;;11.80;67.90;;;10.31;70.11;102415.38;8455017;28;20118;-81
2021/12/15 04:07:12;;;;;;;14.13;9.98;;;11.80;68.00;;;10.19;69.62;102393.91;8458965;28;20032;-80
2021/12/15 04:11:36;;;;;;;14.15;9.15;;;11.80;68.00;;;10.33;70.12;102414.44;8446432;28;20122;-81
2021/12/15 04:16:05;;;;;;;10.98;8.45;;;11.80;68.00;;;10.35;69.59;102423.09;8456197;28;20618;-82
2021/12/15 04:20:33;;;;;;;14.48;8.43;;;11.80;68.00;;;10.31;69.68;102411.03;8458549;28;20110;-80
2021/12/15 04:24:58;;;;;;;12.30;8.27;;;11.80;67.90;;;10.36;69.69;102423.97;8455279;28;20564;-82
2021/12/15 04:29:20;;;;;;;13.35;8.50;;;11.80;68.00;;;10.36;70.00;102419.59;8445544;28;20114;-82
2021/12/15 04:34:00;;;;;;;12.52;8.55;;;11.80;67.90;;;10.30;70.07;102418.91;8461423;28;20032;-82
2021/12/15 04:38:26;;;;;;;10.98;7.65;;;11.80;67.90;;;10.32;70.42;102419.72;8445209;28;20110;-81
2021/12/15 04:42:49;;;;;;;11.45;8.35;;;11.80;67.90;;;10.27;70.21;102409.41;8461444;28;20118;-81
2021/12/15 04:47:12;;;;;;;11.65;8.50;;;11.80;67.90;;;10.29;69.15;102419.78;8458066;27;20122;-81
2021/12/15 04:51:35;;;;;;;13.60;8.13;;;11.80;67.90;;;10.30;69.85;102432.81;8452784;28;20114;-80
2021/12/15 04:55:56;;;;;;;12.65;8.63;;;11.80;67.90;;;10.33;69.94;102437.09;8445587;28;20571;-80
2021/12/15 05:04:56;;;;;;;10.32;7.68;;;11.80;67.90;;;10.31;69.56;102446.72;8336912;28;20136;-92
2021/12/15 05:09:19;;;;;;;10.90;7.68;;;11.80;67.90;;;10.26;70.02;102449.44;8326424;28;20569;-90
2021/12/15 05:13:41;;;;;;;12.93;8.32;;;12.00;68.10;;;10.27;69.91;102452.91;8344712;28;20111;-92
2021/12/15 05:18:05;;;;;;;10.35;7.55;;;12.00;68.10;;;10.24;69.89;102447.78;8320795;28;20140;-91
2021/12/15 05:22:27;;;;;;;13.23;8.45;;;11.80;67.90;;;10.26;69.92;102451.19;8340465;28;20123;-91
2021/12/15 05:26:50;;;;;;;10.82;7.97;;;11.80;67.90;;;10.23;69.50;102443.44;8356187;28;20131;-91
2021/12/15 05:31:12;;;;;;;10.75;7.75;;;11.80;67.90;;;10.24;70.00;102451.22;8335383;28;20120;-91
2021/12/15 05:35:36;;;;;;;11.55;7.85;;;11.80;67.90;;;10.30;69.37;102473.75;8349246;28;20129;-92
2021/12/15 05:39:59;;;;;;;10.77;7.47;;;11.80;67.90;;;10.33;69.98;102478.88;8364136;28;20119;-91
2021/12/15 05:44:23;;;;;;;11.52;8.07;;;11.80;67.90;;;10.18;69.80;102464.44;8383475;28;20127;-92
2021/12/15 05:48:45;;;;;;;11.65;7.85;;;11.80;67.90;;;10.25;69.71;102470.34;8349582;28;20132;-92
2021/12/15 05:53:07;;;;;;;9.02;6.75;;;11.80;67.90;;;10.26;69.64;102469.44;8351940;28;20135;-87
2021/12/15 05:57:29;;;;;;;10.25;7.55;;;11.80;67.90;;;10.22;69.76;102460.00;8344034;28;20120;-91
2021/12/15 06:01:51;;;;;;;10.35;7.78;;;11.80;67.90;;;10.29;69.73;102472.00;8352042;28;20132;-92
2021/12/15 06:06:13;;;;;;;13.32;8.25;;;11.80;67.90;;;10.15;69.76;102465.38;8363512;28;20123;-91
2021/12/15 06:10:39;;;;;;;12.93;8.60;;;11.70;67.70;;;10.26;69.91;102483.38;8335749;28;20124;-89
2021/12/15 06:15:02;;;;;;;11.38;7.32;;;11.70;67.80;;;10.20;70.09;102470.47;8335102;28;20131;-92
2021/12/15 06:19:24;;;;;;;9.35;7.28;;;11.70;67.80;;;10.26;69.88;102485.13;8351716;28;20108;-92
2021/12/15 06:23:48;;;;;;;9.93;7.22;;;11.70;67.80;;;10.26;70.04;102491.22;8340602;28;20123;-91
2021/12/15 06:28:10;;;;;;;10.23;7.43;;;11.70;67.90;;;10.19;69.93;102474.84;8366525;28;20128;-92
2021/12/15 06:32:32;;;;;;;10.18;7.45;;;11.70;67.90;;;10.26;69.60;102485.13;8331081;28;20119;-91
2021/12/15 06:36:56;;;;;;;12.70;8.43;;;11.70;67.90;;;10.27;69.74;102485.13;8322343;28;20136;-91
2021/12/15 06:41:19;;;;;;;10.30;7.18;;;11.70;67.90;;;10.17;69.69;102470.56;8318700;28;20140;-91
2021/12/15 06:45:58;;;;;;;10.52;7.95;;;11.70;67.90;;;10.24;69.71;102479.09;8352855;28;20119;-91
2021/12/15 06:59:41;;;;;;;10.52;7.13;;;11.70;67.90;;;10.22;69.36;102480.88;8343573;28;20135;-87
2021/12/15 07:04:03;;;;;;;10.23;7.50;;;11.70;67.90;;;10.22;69.65;102486.09;8340089;28;20128;-87
2021/12/15 07:08:28;;;;;;;16.02;7.57;;;11.70;67.90;;;10.16;69.67;102472.31;8357121;28;20033;-86
2021/12/15 07:12:51;;;;;;;10.18;7.50;;;11.70;67.90;;;10.13;69.75;102477.63;8346355;28;20482;-86
2021/12/15 07:17:20;;;;;;;12.02;7.70;;;11.70;67.90;;;10.24;69.69;102494.78;8348741;28;20120;-89
2021/12/15 07:21:52;;;;;;;10.15;7.40;;;11.70;67.90;;;10.28;70.08;102512.09;8333763;28;20124;-87
2021/12/15 07:26:15;;;;;;;10.02;7.15;;;11.80;68.00;;;10.22;69.78;102501.78;8335240;28;20057;-84
2021/12/15 07:30:38;;;;;;;8.30;6.55;;;11.80;67.90;;;10.20;69.72;102500.03;8312386;28;20120;-86
2021/12/15 07:34:59;;;;;;;11.30;7.22;;;11.90;68.00;;;10.20;69.62;102494.81;8318543;28;20112;-85
2021/12/15 07:39:22;;;;;;;10.27;7.25;;;11.80;67.90;;;10.18;69.41;102499.25;8320222;28;20112;-87
2021/12/15 07:43:44;;;;;;;10.13;6.88;;;11.80;67.90;;;10.30;69.95;102520.75;8306504;28;20472;-87
2021/12/15 07:48:09;;;;;;;10.82;6.85;;;11.80;67.90;;;10.22;70.13;102512.22;8344413;28;20037;-87
2021/12/15 07:52:30;;;;;;;10.93;7.53;;;11.80;67.90;;;10.17;69.93;102512.31;8314431;28;20593;-87
2021/12/15 07:56:52;;;;;;;10.20;6.95;;;11.80;67.90;;;10.21;69.91;102516.59;8348927;28;20127;-87
2021/12/15 08:01:16;;;;;;;9.48;6.63;;;11.80;67.90;;;10.29;69.63;102535.56;8316965;28;20113;-86
2021/12/15 08:05:40;;;;;;;8.80;6.38;;;11.80;67.90;;;10.20;70.18;102518.31;8349463;28;20120;-87
2021/12/15 08:10:08;;;;;;;8.65;6.72;;;11.80;67.90;;;10.19;70.05;102521.84;8315034;28;20136;-89
2021/12/15 08:14:30;;;;;;;9.68;6.90;;;11.80;67.90;;;10.17;69.69;102513.16;8322033;28;20562;-90
2021/12/15 08:18:52;;;;;;;9.82;6.50;;;11.80;67.90;;;10.21;70.05;102519.19;8317096;28;20525;-88
2021/12/15 08:23:14;;;;;;;9.57;7.18;;;11.80;67.90;;;10.28;70.00;102531.22;8307828;28;20116;-90
2021/12/15 08:27:37;;;;;;;10.27;7.03;;;11.80;67.90;;;10.23;69.90;102532.19;8317959;28;20124;-89
2021/12/15 08:31:59;;;;;;;7.97;6.15;;;11.80;67.80;;;10.25;70.11;102538.25;8312373;28;20601;-86
2021/12/15 08:36:21;;;;;;;8.30;6.30;;;11.80;68.00;;;10.23;69.58;102540.88;8314760;28;20043;-85
2021/12/15 08:40:44;;;;;;;9.07;6.57;;;11.80;68.00;;;10.33;70.06;102555.47;8324860;28;20582;-92
2021/12/15 08:45:10;;;;;;;9.45;6.68;;;11.80;68.00;;;10.26;69.93;102545.16;8312420;28;20104;-87
2021/12/15 08:49:33;;;;;;;8.82;6.45;;;11.80;68.00;;;10.29;69.92;102550.34;8329110;28;20123;-88
2021/12/15 08:54:05;;;;;;;9.43;6.43;;;11.80;68.00;;;10.28;70.16;102549.50;8327329;28;20296;-85
2021/12/15 08:58:28;;;;;;;8.27;5.30;;;11.90;68.10;;;10.41;69.79;102568.34;8348578;28;20104;-90
2021/12/15 09:02:52;;;;;;;7.85;5.90;;;11.90;68.10;;;10.32;69.82;102553.75;8320764;28;20557;-89
2021/12/15 09:07:14;;;;;;;8.90;6.30;;;11.90;68.70;;;10.34;69.61;102549.38;8337502;28;20036;-89
2021/12/15 09:11:37;;;;;;;8.77;6.13;;;11.90;68.00;;;10.36;69.54;102552.78;8333232;28;20119;-88
2021/12/15 09:16:05;;;;;;;8.88;6.22;;;11.90;68.10;;;10.41;69.75;102550.06;8320887;28;20140;-89
2021/12/15 09:20:32;;;;;;;8.18;6.18;;;12.00;68.10;;;10.43;69.65;102548.28;8349272;28;20037;-88
2021/12/15 09:24:54;;;;;;;7.38;5.63;;;12.00;68.10;;;10.31;69.81;102531.13;8346888;28;20124;-89
2021/12/15 09:29:16;;;;;;;5.68;4.85;;;12.00;68.10;;;10.49;69.83;102569.00;8307293;28;20109;-89
2021/12/15 09:33:44;;;;;;;7.45;5.90;;;12.00;68.10;;;10.44;69.83;102555.19;8302996;28;20458;-90
2021/12/15 09:38:16;;;;;;;8.48;5.68;;;12.00;68.10;;;10.47;70.08;102555.13;8305213;28;20119;-85
2021/12/15 09:42:40;;;;;;;8.38;5.30;;;12.00;68.10;;;10.35;69.84;102524.09;8321562;28;20132;-89
2021/12/15 09:47:24;;;;;;;6.45;5.18;;;12.10;68.10;;;10.48;69.76;102546.41;8326796;28;20508;-89
2021/12/15 10:06:03;;;;;;;4.68;4.20;;;12.10;68.20;;;10.57;70.03;102540.94;8329709;28;20036;-90
2021/12/15 10:10:45;;;;;;;7.47;5.07;;;12.20;68.30;;;10.63;70.05;102555.59;8330604;28;20562;-89
2021/12/15 10:20:01;;;;;;;7.00;4.75;;;12.10;68.90;;;10.64;70.12;102539.03;8339420;28;20144;-90
2021/12/15 10:24:37;;;;;;;6.05;5.10;;;12.10;68.20;;;10.61;70.10;102537.34;8343000;28;20129;-90
2021/12/15 10:29:08;;;;;;;7.30;5.80;;;12.20;68.30;;;10.61;69.99;102529.50;8336213;28;20048;-90
2021/12/15 10:33:35;;;;;;;5.88;5.28;;;12.20;68.30;;;10.69;69.98;102533.66;8306940;28;20101;-89
2021/12/15 10:38:32;;;;;;;6.13;5.28;;;12.40;68.50;;;10.72;69.58;102539.69;8334087;28;20132;-90
2021/12/15 10:43:04;;;;;;;5.43;4.72;;;12.20;68.30;;;10.55;70.08;102506.16;8350110;28;20127;-89
2021/12/15 10:47:26;;;;;;;5.35;4.72;;;12.20;68.30;;;10.66;70.07;102518.06;8348853;28;20127;-90
2021/12/15 10:51:53;;;;;;;5.82;4.63;;;12.30;68.30;;;10.80;70.22;102547.28;8343744;28;20120;-89
2021/12/15 10:56:24;;;;;;;6.38;4.93;;;12.30;68.30;;;10.74;70.16;102537.00;8352933;28;20123;-89
2021/12/15 11:05:41;;;;;;;5.75;4.72;;;12.40;68.30;;;10.83;69.99;102532.41;8351252;28;20403;-83
2021/12/15 11:10:25;;;;;;;6.55;4.55;;;12.30;68.20;;;10.85;69.96;102537.56;8351029;28;20029;-82
2021/12/15 11:14:59;;;;;;;6.07;4.55;;;12.40;68.30;;;10.87;70.28;102537.56;8337659;28;20127;-82
2021/12/15 11:19:56;;;;;;;4.93;4.43;;;12.40;68.30;;;10.88;70.05;102544.47;8351433;28;20120;-81
2021/12/15 11:24:22;;;;;;;6.00;4.75;;;12.40;68.40;;;10.90;70.14;102532.22;8351941;28;20112;-82
2021/12/15 11:28:49;;;;;;;;;;;12.40;68.30;;;10.91;70.35;102534.81;8366303;28;20688;-82
2021/12/15 11:33:23;;;;;;;4.28;3.65;;;12.50;68.40;;;10.88;70.14;102527.03;8361934;28;19935;-81
2021/12/15 11:38:09;;;;;;;4.20;3.80;;;12.50;68.20;;;10.91;69.56;102529.59;8345166;28;20120;-83
2021/12/15 11:42:39;;;;;;;5.63;4.38;;;12.50;68.30;;;10.88;69.57;102518.34;8359130;28;20200;-83
2021/12/15 11:47:05;;;;;;;4.50;4.07;;;12.50;68.30;;;11.00;69.64;102524.09;8358584;28;20054;-82
2021/12/15 11:51:39;;;;;;;5.00;4.38;;;12.50;68.30;;;11.04;70.10;102528.34;8360927;28;20127;-81
2021/12/15 11:56:35;;;;;;;5.63;4.57;;;12.60;68.50;;;11.00;69.91;102524.09;8351087;28;20143;-82
2021/12/15 12:00:57;;;;;;;;;;;12.50;68.60;;;11.05;70.36;102516.13;8336598;28;20486;-82
2021/12/15 12:05:35;;;;;;;5.50;4.45;;;12.60;68.60;;;11.08;69.91;102527.34;8348326;28;20003;-82
2021/12/15 12:10:09;;;;;;;5.55;4.57;;;12.60;68.30;;;11.13;69.85;102524.63;8338229;28;20048;-83
2021/12/15 12:14:39;;;;;;;5.15;4.35;;;12.70;69.30;;;11.18;70.42;102517.50;8350292;28;20732;-83
2021/12/15 12:19:02;;;;;;;4.65;4.15;;;12.70;68.60;;;11.20;70.24;102514.81;8354869;28;20127;-83
2021/12/15 12:23:29;;;;;;;4.55;4.03;;;12.70;68.60;;;11.18;70.21;102496.56;8335574;28;20554;-81
2021/12/15 12:27:55;;;;;;;8.40;5.13;;;12.80;68.70;;;11.25;70.16;102502.47;8346158;28;20280;-83
2021/12/15 12:32:16;;;;;;;4.80;4.03;;;12.80;68.60;;;11.28;70.42;102502.38;8360935;28;20406;-83
2021/12/15 12:36:38;;;;;;;4.25;3.80;;;12.80;68.60;;;11.27;70.15;102484.97;8344554;28;20127;-83
2021/12/15 12:41:06;;;;;;;5.38;3.88;;;12.80;68.60;;;11.39;69.73;102497.69;8353701;28;20565;-82
2021/12/15 12:45:35;;;;;;;5.63;3.47;;;12.90;68.70;;;11.41;70.13;102498.50;8359555;28;20148;-82
2021/12/15 12:50:12;;;;;;;3.50;3.20;;;12.90;68.70;;;11.43;70.36;102488.84;8355906;28;20490;-82
2021/12/15 12:59:39;;;;;;;4.13;3.40;;;13.00;68.60;;;11.50;69.82;102497.34;8354320;28;20123;-84
2021/12/15 13:04:10;;;;;;;4.60;3.88;;;13.00;68.60;;;11.50;70.03;102502.59;8355886;28;20035;-83
2021/12/15 13:08:48;;;;;;;4.35;2.95;;;13.00;68.50;;;11.57;69.85;102513.75;8362289;28;20124;-83
2021/12/15 13:13:16;;;;;;;3.30;3.00;;;13.10;68.60;;;11.57;69.93;102511.13;8353973;28;20434;-83
2021/12/15 13:18:03;;;;;;;3.72;3.20;;;13.10;68.50;;;11.57;70.25;102508.50;8358115;28;20132;-83
2021/12/15 13:31:33;;;;;;;3.88;3.55;;;13.10;68.30;;;11.57;69.96;102508.50;8334111;28;20528;-83
2021/12/15 13:36:27;;;;;;;3.80;3.35;;;13.20;68.30;;;11.66;70.18;102519.53;8361722;28;20128;-83
2021/12/15 13:41:07;;;;;;;3.33;3.03;;;13.20;68.30;;;11.58;70.28;102504.97;8345511;28;20037;-83
2021/12/15 13:45:33;;;;;;;3.53;3.22;;;13.20;68.30;;;11.68;69.89;102520.34;8347710;28;20123;-83
2021/12/15 13:50:17;;;;;;;;;;;13.20;68.20;;;11.66;70.32;102516.91;8357567;28;20135;-83
2021/12/15 13:54:39;;;;;;;6.63;3.53;;;13.20;68.30;;;11.70;70.31;102522.94;8348381;28;19980;-83
2021/12/15 13:59:33;;;;;;;3.25;2.70;;;13.30;68.10;;;11.68;70.16;102527.34;8358802;28;20558;-83
2021/12/15 14:03:55;;;;;;;3.33;2.97;;;13.20;68.10;;;11.73;69.84;102533.28;8364460;28;20119;-83
2021/12/15 14:08:26;;;;;;;2.80;2.60;;;13.20;68.10;;;11.70;69.99;102520.31;8348717;28;20483;-83
2021/12/15 14:12:52;;;;;;;4.10;2.90;;;13.40;68.30;;;11.74;69.63;102532.38;8350974;28;20138;-83
2021/12/15 14:17:21;;;;;;;3.28;2.80;;;13.20;68.10;;;11.67;69.81;102513.41;8367283;28;20119;-82
2021/12/15 14:21:47;;;;;;;3.53;2.75;;;13.20;68.10;;;11.68;70.15;102511.63;8359896;28;20504;-82
2021/12/15 14:26:20;;;;;;;2.90;2.67;;;13.30;68.10;;;11.76;70.14;102527.09;8350530;28;20033;-84
2021/12/15 14:30:47;;;;;;;3.05;2.72;;;13.30;68.10;;;11.74;70.04;102525.38;8363165;28;20039;-82
2021/12/15 14:35:26;;;;;;;4.05;3.10;;;13.20;68.00;;;11.65;69.90;102517.81;8349823;28;20084;-82
2021/12/15 14:39:51;;;;;;;3.30;3.00;;;13.30;68.10;;;11.67;70.15;102510.78;8364016;28;20116;-81
2021/12/15 14:44:17;;;;;;;3.60;2.95;;;13.30;68.10;;;11.80;70.05;102534.81;8363246;28;20123;-82
2021/12/15 14:48:39;;;;;;;;;;;13.30;68.10;;;11.77;70.15;102532.28;8370497;28;20037;-81
2021/12/15 14:53:03;;;;;;;2.50;2.30;;;13.30;68.10;;;11.79;70.16;102542.72;8364854;28;19919;-81
2021/12/15 14:57:29;;;;;;;2.50;2.30;;;13.30;67.90;;;11.75;69.78;102541.97;8363546;28;20573;-81
2021/12/15 15:01:58;;;;;;;3.53;2.67;;;13.30;67.90;;;11.76;69.63;102530.56;8343996;28;20491;-81
2021/12/15 15:06:26;;;;;;;3.15;2.85;;;13.30;67.90;;;11.72;69.70;102528.97;8334023;28;20033;-82
2021/12/15 15:10:49;;;;;;;2.95;2.67;;;13.30;67.90;;;11.76;70.02;102538.44;8359790;28;20131;-83
2021/12/15 15:15:24;;;;;;;3.78;3.20;;;13.30;67.90;;;11.79;69.88;102538.31;8348657;28;20098;-83
2021/12/15 15:19:52;;;;;;;3.55;3.03;;;13.30;67.90;;;11.77;69.46;102534.03;8346006;28;20119;-86
2021/12/15 15:24:33;;;;;;;4.25;3.00;;;13.30;67.80;;;11.80;70.30;102549.66;8348440;28;20028;-82
2021/12/15 15:28:55;;;;;;;3.10;2.78;;;13.30;67.90;;;11.73;69.75;102547.22;8346965;28;20037;-82
2021/12/15 15:33:29;;;;;;;3.03;2.70;;;13.30;67.90;;;11.80;69.91;102558.38;8344040;28;20036;-81
2021/12/15 15:37:56;;;;;;;3.35;3.03;;;13.30;67.90;;;11.71;69.45;102538.56;8356952;28;20047;-82
2021/12/15 15:42:24;;;;;;;3.45;3.15;;;13.30;67.80;;;11.81;69.83;102546.16;8356805;28;20427;-82
2021/12/15 15:46:51;;;;;;;3.17;2.65;;;13.30;67.70;;;11.80;69.66;102552.25;8366141;28;20047;-82
2021/12/15 15:51:27;;;;;;;2.80;2.50;;;13.10;67.60;;;11.75;69.49;102544.59;8359484;28;20561;-81
2021/12/15 15:55:54;;;;;;;3.28;2.70;;;13.30;67.70;;;11.76;69.54;102548.03;8350460;28;20152;-84
2021/12/15 16:00:19;;;;;;;3.03;2.72;;;13.30;67.70;;;11.77;69.82;102558.44;8335550;28;20654;-81
2021/12/15 16:04:41;;;;;;;4.00;2.70;;;13.20;67.60;;;11.74;70.02;102556.78;8337744;28;20050;-81
2021/12/15 16:09:09;;;;;;;2.80;2.50;;;13.30;67.70;;;11.77;69.62;102568.91;8336830;28;20037;-81
2021/12/15 16:13:32;;;;;;;2.58;2.38;;;13.20;67.60;;;11.69;69.80;102557.81;8336338;28;20035;-83
2021/12/15 16:17:56;;;;;;;2.25;2.13;;;13.20;67.60;;;11.78;69.56;102567.19;8350574;28;20041;-81
2021/12/15 16:27:08;;;;;;;3.78;3.38;;;13.20;67.60;;;11.73;69.47;102557.69;8356020;28;20497;-82
2021/12/15 16:31:51;;;;;;;4.72;4.28;;;13.20;67.60;;;11.71;69.91;102559.50;8359108;28;20051;-84
2021/12/15 16:36:18;;;;;;;4.43;4.03;;;13.20;67.60;;;11.71;69.88;102574.34;8344896;28;20025;-83
2021/12/15 16:41:09;;;;;;;5.55;4.88;;;13.30;67.70;;;11.80;69.85;102588.91;8357143;28;20036;-82
2021/12/15 16:45:36;;;;;;;6.07;4.70;;;13.30;67.60;;;11.82;69.71;102592.34;8359653;28;20124;-83
2021/12/15 16:50:00;;;;;;;3.95;3.17;;;13.20;67.50;;;11.81;69.57;102580.19;8354047;28;20037;-82
2021/12/15 16:54:22;;;;;;;4.72;3.03;;;13.30;68.20;;;11.82;70.05;102581.88;8325084;28;20028;-84
2021/12/15 16:59:13;;;;;;;4.80;3.70;;;13.30;67.60;;;11.80;69.90;102592.41;8349489;28;20127;-83
2021/12/15 17:03:40;;;;;;;3.10;2.80;;;13.30;67.50;;;11.79;69.80;102585.44;8389995;22;20515;-80
2021/12/15 17:08:22;;;;;;;3.20;2.70;;;13.20;67.40;;;11.74;69.62;102574.25;8400270;28;20040;-80
2021/12/15 17:12:58;;;;;;;2.80;2.60;;;13.30;67.50;;;11.68;69.58;102575.28;8388842;28;20317;-80
2021/12/15 17:17:43;;;;;;;2.50;2.35;;;13.10;67.50;;;11.80;69.58;102599.38;8353306;28;20040;-80
2021/12/15 17:22:15;;;;;;;2.47;2.28;;;13.30;67.40;;;11.62;69.54;102567.63;8386415;28;20050;-80
2021/12/15 17:26:47;;;;;;;2.83;2.50;;;13.20;67.30;;;11.73;69.35;102586.50;8378074;28;20438;-80
2021/12/15 17:31:18;;;;;;;3.17;2.95;;;13.30;67.30;;;11.71;69.53;102585.66;8367024;28;20107;-81
2021/12/15 17:35:40;;;;;;;3.28;2.97;;;13.20;67.30;;;11.70;69.78;102583.97;8361143;28;20103;-80
2021/12/15 17:40:02;;;;;;;3.33;2.72;;;13.20;67.30;;;11.72;69.71;102597.03;8343414;28;20118;-81
2021/12/15 17:44:57;;;;;;;3.05;2.75;;;13.20;67.30;;;11.66;69.55;102595.41;8345030;28;20060;-80
2021/12/15 17:49:27;;;;;;;3.33;2.83;;;13.20;67.30;;;11.75;69.92;102615.25;8332667;28;20041;-81
2021/12/15 17:53:57;;;;;;;3.17;2.90;;;13.20;67.30;;;11.72;69.33;102621.44;8351575;28;20045;-80
2021/12/15 17:58:26;;;;;;;4.07;3.55;;;13.20;67.20;;;11.64;69.53;102615.56;8361018;28;20128;-80
2021/12/15 18:02:48;;;;;;;5.10;4.43;;;13.20;67.20;;;11.61;69.33;102610.41;8350341;28;20037;-81
2021/12/15 18:07:11;;;;;;;4.45;4.00;;;13.10;67.20;;;11.68;69.62;102630.25;8347500;28;20028;-81
2021/12/15 18:11:32;;;;;;;4.15;3.75;;;13.10;67.20;;;11.60;69.46;102618.31;8360417;28;20046;-82
2021/12/15 18:15:57;;;;;;;3.63;3.33;;;13.10;67.20;;;11.60;69.38;102624.38;8367682;28;20135;-81
2021/12/15 18:20:19;;;;;;;3.22;2.97;;;13.10;67.30;;;11.59;69.47;102616.59;8341107;28;20244;-82
2021/12/15 18:24:42;;;;;;;4.63;3.42;;;13.10;67.30;;;11.58;69.27;102612.25;8356795;28;20131;-80
2021/12/15 18:29:07;;;;;;;2.95;2.70;;;13.10;67.30;;;11.58;69.59;102618.34;8366432;28;20028;-80
2021/12/15 18:33:31;;;;;;;3.15;2.85;;;13.10;67.20;;;11.58;69.75;102620.94;8353315;28;20123;-82
2021/12/15 18:37:54;;;;;;;3.40;3.10;;;13.10;67.30;;;11.56;69.54;102619.28;8346224;28;20051;-80
2021/12/15 18:42:20;;;;;;;3.38;2.85;;;13.00;67.30;;;11.58;69.74;102634.03;8365938;28;20561;-80
2021/12/15 18:46:43;;;;;;;3.25;2.95;;;13.00;67.30;;;11.54;69.46;102618.50;8362778;28;20123;-80
2021/12/15 18:51:05;;;;;;;2.78;2.58;;;13.00;67.20;;;11.54;69.78;102613.25;8370757;28;20123;-79
2021/12/15 18:55:27;;;;;;;3.10;2.85;;;13.00;67.20;;;11.54;69.56;102624.56;8353006;28;20036;-81
2021/12/15 18:59:49;;;;;;;3.10;2.80;;;13.00;67.20;;;11.54;69.46;102616.72;8350790;28;20040;-81
2021/12/15 19:04:14;;;;;;;2.70;2.50;;;13.00;67.20;;;11.48;69.37;102609.91;8358637;28;20103;-80
2021/12/15 19:08:38;;;;;;;3.42;3.13;;;13.00;67.20;;;11.51;69.62;102625.50;8368281;28;20050;-80
2021/12/15 19:13:02;;;;;;;2.70;2.50;;;13.00;67.30;;;11.48;69.75;102603.81;8375411;28;20036;-81
2021/12/15 19:17:24;;;;;;;3.47;3.17;;;12.90;67.20;;;11.45;69.58;102612.63;8362377;28;20040;-80
2021/12/15 19:21:46;;;;;;;3.20;2.88;;;12.90;67.20;;;11.46;69.62;102616.09;8361235;28;20474;-80
2021/12/15 19:26:09;;;;;;;3.15;2.85;;;12.90;67.30;;;11.37;69.44;102593.66;8367039;28;20050;-81
2021/12/15 19:30:40;;;;;;;2.60;2.40;;;12.90;67.30;;;11.43;69.37;102613.56;8365480;28;21454;-81
2021/12/15 19:35:03;;;;;;;3.30;3.00;;;12.90;67.30;;;11.41;69.44;102608.34;8357173;28;20511;-81
2021/12/15 19:39:25;;;;;;;2.67;2.47;;;12.90;67.30;;;11.41;69.89;102607.50;8363835;28;20032;-80
2021/12/15 19:43:47;;;;;;;3.38;2.60;;;13.10;67.50;;;11.42;69.48;102604.88;8349817;28;20532;-80
2021/12/15 19:48:09;;;;;;;3.20;2.97;;;12.90;67.50;;;11.38;69.34;102608.44;8368411;28;20036;-81